sensor_id;sensor_type;location;lat;lon;timestamp;P1;durP1;ratioP1;P2;durP2;ratioP2
19810;SDS011;10065;49.632;8.346;2022-11-20T00:00:28;27.13;;;14.40;;
19810;SDS011;10065;49.632;8.346;2022-11-20T00:02:57;30.03;;;15.60;;
19810;SDS011;10065;49.632;8.346;2022-11-20T00:05:24;25.47;;;13.80;;
19810;SDS011;10065;49.632;8.346;2022-11-20T00:07:52;25.40;;;14.43;;
19810;SDS011;10065;49.632;8.346;2022-11-20T00:10:20;29.10;;;15.47;;
19810;SDS011;10065;49.632;8.346;2022-11-20T00:12:48;25.67;;;14.37;;
19810;SDS011;10065;49.632;8.346;2022-11-20T00:15:16;27.37;;;14.50;;
19810;SDS011;10065;49.632;8.346;2022-11-20T00:17:44;27.13;;;14.90;;
19810;SDS011;10065;49.632;8.346;2022-11-20T00:20:14;28.17;;;14.67;;
19810;SDS011;10065;49.632;8.346;2022-11-20T00:22:42;26.77;;;14.67;;
19810;SDS011;10065;49.632;8.346;2022-11-20T00:25:10;23.87;;;12.97;;
19810;SDS011;10065;49.632;8.346;2022-11-20T00:27:37;28.23;;;15.10;;
19810;SDS011;10065;49.632;8.346;2022-11-20T00:30:06;28.37;;;15.17;;
19810;SDS011;10065;49.632;8.346;2022-11-20T00:32:40;28.07;;;15.50;;
19810;SDS011;10065;49.632;8.346;2022-11-20T00:35:07;26.93;;;14.80;;
19810;SDS011;10065;49.632;8.346;2022-11-20T00:37:37;28.77;;;15.73;;
19810;SDS011;10065;49.632;8.346;2022-11-20T00:40:05;31.60;;;15.77;;
19810;SDS011;10065;49.632;8.346;2022-11-20T00:42:34;30.23;;;16.03;;
19810;SDS011;10065;49.632;8.346;2022-11-20T00:45:02;28.57;;;14.80;;
19810;SDS011;10065;49.632;8.346;2022-11-20T00:47:30;27.70;;;15.17;;
19810;SDS011;10065;49.632;8.346;2022-11-20T00:49:58;28.63;;;14.70;;
19810;SDS011;10065;49.632;8.346;2022-11-20T00:52:25;26.60;;;14.57;;
19810;SDS011;10065;49.632;8.346;2022-11-20T00:54:55;27.00;;;13.70;;
19810;SDS011;10065;49.632;8.346;2022-11-20T00:57:22;27.53;;;14.67;;
19810;SDS011;10065;49.632;8.346;2022-11-20T00:59:50;28.80;;;14.77;;
19810;SDS011;10065;49.632;8.346;2022-11-20T01:02:18;30.73;;;15.70;;
19810;SDS011;10065;49.632;8.346;2022-11-20T01:04:45;29.63;;;16.23;;
19810;SDS011;10065;49.632;8.346;2022-11-20T01:07:13;25.30;;;13.50;;
19810;SDS011;10065;49.632;8.346;2022-11-20T01:09:42;24.80;;;14.03;;
19810;SDS011;10065;49.632;8.346;2022-11-20T01:12:11;26.30;;;13.73;;
19810;SDS011;10065;49.632;8.346;2022-11-20T01:14:38;23.97;;;13.93;;
19810;SDS011;10065;49.632;8.346;2022-11-20T01:17:06;24.47;;;13.40;;
19810;SDS011;10065;49.632;8.346;2022-11-20T01:19:34;24.50;;;13.77;;
19810;SDS011;10065;49.632;8.346;2022-11-20T01:22:01;24.77;;;13.33;;
19810;SDS011;10065;49.632;8.346;2022-11-20T01:24:29;32.27;;;14.90;;
19810;SDS011;10065;49.632;8.346;2022-11-20T01:26:57;27.77;;;14.17;;
19810;SDS011;10065;49.632;8.346;2022-11-20T01:29:26;25.37;;;13.70;;
19810;SDS011;10065;49.632;8.346;2022-11-20T01:31:54;26.70;;;14.07;;
19810;SDS011;10065;49.632;8.346;2022-11-20T01:34:22;25.93;;;13.30;;
19810;SDS011;10065;49.632;8.346;2022-11-20T01:36:51;26.03;;;14.20;;
19810;SDS011;10065;49.632;8.346;2022-11-20T01:39:20;26.70;;;13.97;;
19810;SDS011;10065;49.632;8.346;2022-11-20T01:41:50;26.47;;;13.80;;
19810;SDS011;10065;49.632;8.346;2022-11-20T01:44:45;25.00;;;13.53;;
19810;SDS011;10065;49.632;8.346;2022-11-20T01:47:20;26.90;;;13.43;;
19810;SDS011;10065;49.632;8.346;2022-11-20T01:49:54;25.70;;;13.33;;
19810;SDS011;10065;49.632;8.346;2022-11-20T01:52:27;25.77;;;13.63;;
19810;SDS011;10065;49.632;8.346;2022-11-20T01:55:00;27.63;;;14.73;;
19810;SDS011;10065;49.632;8.346;2022-11-20T01:57:31;26.03;;;14.10;;
19810;SDS011;10065;49.632;8.346;2022-11-20T02:00:03;25.10;;;12.87;;
19810;SDS011;10065;49.632;8.346;2022-11-20T02:02:33;22.20;;;12.70;;
19810;SDS011;10065;49.632;8.346;2022-11-20T02:05:03;22.77;;;12.00;;
19810;SDS011;10065;49.632;8.346;2022-11-20T02:07:39;19.03;;;10.77;;
19810;SDS011;10065;49.632;8.346;2022-11-20T02:10:08;21.83;;;12.40;;
19810;SDS011;10065;49.632;8.346;2022-11-20T02:12:35;20.57;;;11.23;;
19810;SDS011;10065;49.632;8.346;2022-11-20T02:15:22;20.90;;;11.20;;
19810;SDS011;10065;49.632;8.346;2022-11-20T02:17:55;21.63;;;10.97;;
19810;SDS011;10065;49.632;8.346;2022-11-20T02:20:23;21.50;;;12.13;;
19810;SDS011;10065;49.632;8.346;2022-11-20T02:22:53;19.53;;;11.27;;
19810;SDS011;10065;49.632;8.346;2022-11-20T02:25:26;22.77;;;11.47;;
19810;SDS011;10065;49.632;8.346;2022-11-20T02:27:56;21.40;;;11.30;;
19810;SDS011;10065;49.632;8.346;2022-11-20T02:30:24;21.27;;;11.60;;
19810;SDS011;10065;49.632;8.346;2022-11-20T02:32:51;20.83;;;11.50;;
19810;SDS011;10065;49.632;8.346;2022-11-20T02:35:42;24.37;;;12.23;;
19810;SDS011;10065;49.632;8.346;2022-11-20T02:38:12;19.40;;;10.90;;
19810;SDS011;10065;49.632;8.346;2022-11-20T02:40:42;22.30;;;11.83;;
19810;SDS011;10065;49.632;8.346;2022-11-20T02:43:10;22.83;;;12.03;;
19810;SDS011;10065;49.632;8.346;2022-11-20T02:45:38;21.37;;;11.80;;
19810;SDS011;10065;49.632;8.346;2022-11-20T02:48:06;19.90;;;11.03;;
19810;SDS011;10065;49.632;8.346;2022-11-20T02:50:36;21.60;;;12.00;;
19810;SDS011;10065;49.632;8.346;2022-11-20T02:53:04;22.83;;;11.53;;
19810;SDS011;10065;49.632;8.346;2022-11-20T02:55:32;20.37;;;11.03;;
19810;SDS011;10065;49.632;8.346;2022-11-20T02:58:01;22.23;;;11.47;;
19810;SDS011;10065;49.632;8.346;2022-11-20T03:00:29;21.13;;;10.83;;
19810;SDS011;10065;49.632;8.346;2022-11-20T03:02:58;19.73;;;10.97;;
19810;SDS011;10065;49.632;8.346;2022-11-20T03:05:25;18.77;;;11.07;;
19810;SDS011;10065;49.632;8.346;2022-11-20T03:07:53;19.03;;;10.37;;
19810;SDS011;10065;49.632;8.346;2022-11-20T03:10:21;20.03;;;11.33;;
19810;SDS011;10065;49.632;8.346;2022-11-20T03:12:52;19.60;;;10.20;;
19810;SDS011;10065;49.632;8.346;2022-11-20T03:15:22;18.70;;;9.93;;
19810;SDS011;10065;49.632;8.346;2022-11-20T03:17:52;19.23;;;10.33;;
19810;SDS011;10065;49.632;8.346;2022-11-20T03:20:21;19.53;;;11.10;;
19810;SDS011;10065;49.632;8.346;2022-11-20T03:22:49;18.40;;;10.87;;
19810;SDS011;10065;49.632;8.346;2022-11-20T03:25:17;18.00;;;10.50;;
19810;SDS011;10065;49.632;8.346;2022-11-20T03:27:44;20.07;;;11.13;;
19810;SDS011;10065;49.632;8.346;2022-11-20T03:30:12;19.77;;;11.03;;
19810;SDS011;10065;49.632;8.346;2022-11-20T03:32:42;20.10;;;11.27;;
19810;SDS011;10065;49.632;8.346;2022-11-20T03:35:10;19.37;;;10.13;;
19810;SDS011;10065;49.632;8.346;2022-11-20T03:37:38;18.10;;;10.33;;
19810;SDS011;10065;49.632;8.346;2022-11-20T03:40:06;19.63;;;11.37;;
19810;SDS011;10065;49.632;8.346;2022-11-20T03:42:34;20.13;;;11.60;;
19810;SDS011;10065;49.632;8.346;2022-11-20T03:45:14;20.47;;;10.77;;
19810;SDS011;10065;49.632;8.346;2022-11-20T03:47:45;20.07;;;10.57;;
19810;SDS011;10065;49.632;8.346;2022-11-20T03:50:13;21.97;;;11.57;;
19810;SDS011;10065;49.632;8.346;2022-11-20T03:52:41;22.27;;;11.43;;
19810;SDS011;10065;49.632;8.346;2022-11-20T03:55:09;22.43;;;12.07;;
19810;SDS011;10065;49.632;8.346;2022-11-20T03:57:38;20.30;;;12.10;;
19810;SDS011;10065;49.632;8.346;2022-11-20T04:00:07;22.53;;;11.07;;
19810;SDS011;10065;49.632;8.346;2022-11-20T04:02:35;23.93;;;11.77;;
19810;SDS011;10065;49.632;8.346;2022-11-20T04:05:05;21.57;;;11.33;;
19810;SDS011;10065;49.632;8.346;2022-11-20T04:07:33;21.40;;;11.50;;
19810;SDS011;10065;49.632;8.346;2022-11-20T04:10:02;21.40;;;11.87;;
19810;SDS011;10065;49.632;8.346;2022-11-20T04:12:31;21.80;;;11.53;;
19810;SDS011;10065;49.632;8.346;2022-11-20T04:15:00;22.43;;;11.93;;
19810;SDS011;10065;49.632;8.346;2022-11-20T04:17:27;23.17;;;12.40;;
19810;SDS011;10065;49.632;8.346;2022-11-20T04:19:55;23.37;;;12.07;;
19810;SDS011;10065;49.632;8.346;2022-11-20T04:22:24;23.50;;;11.80;;
19810;SDS011;10065;49.632;8.346;2022-11-20T04:24:52;24.33;;;12.33;;
19810;SDS011;10065;49.632;8.346;2022-11-20T04:27:20;20.53;;;11.03;;
19810;SDS011;10065;49.632;8.346;2022-11-20T04:29:48;21.27;;;10.97;;
19810;SDS011;10065;49.632;8.346;2022-11-20T04:32:15;21.87;;;11.67;;
19810;SDS011;10065;49.632;8.346;2022-11-20T04:34:43;19.77;;;11.03;;
19810;SDS011;10065;49.632;8.346;2022-11-20T04:37:11;18.77;;;10.17;;
19810;SDS011;10065;49.632;8.346;2022-11-20T04:39:40;22.33;;;11.73;;
19810;SDS011;10065;49.632;8.346;2022-11-20T04:42:08;20.70;;;11.10;;
19810;SDS011;10065;49.632;8.346;2022-11-20T04:44:53;18.60;;;10.70;;
19810;SDS011;10065;49.632;8.346;2022-11-20T04:47:21;22.00;;;11.90;;
19810;SDS011;10065;49.632;8.346;2022-11-20T04:49:48;24.03;;;12.23;;
19810;SDS011;10065;49.632;8.346;2022-11-20T04:52:16;21.83;;;11.53;;
19810;SDS011;10065;49.632;8.346;2022-11-20T04:54:45;19.30;;;11.10;;
19810;SDS011;10065;49.632;8.346;2022-11-20T04:57:14;25.50;;;11.87;;
19810;SDS011;10065;49.632;8.346;2022-11-20T04:59:42;19.73;;;10.80;;
19810;SDS011;10065;49.632;8.346;2022-11-20T05:02:10;19.70;;;10.73;;
19810;SDS011;10065;49.632;8.346;2022-11-20T05:04:38;24.30;;;11.93;;
19810;SDS011;10065;49.632;8.346;2022-11-20T05:07:06;20.23;;;10.67;;
19810;SDS011;10065;49.632;8.346;2022-11-20T05:09:34;22.27;;;12.30;;
19810;SDS011;10065;49.632;8.346;2022-11-20T05:12:03;21.47;;;11.23;;
19810;SDS011;10065;49.632;8.346;2022-11-20T05:14:31;19.70;;;11.20;;
19810;SDS011;10065;49.632;8.346;2022-11-20T05:16:59;20.90;;;10.60;;
19810;SDS011;10065;49.632;8.346;2022-11-20T05:19:27;22.50;;;11.57;;
19810;SDS011;10065;49.632;8.346;2022-11-20T05:21:55;19.33;;;10.63;;
19810;SDS011;10065;49.632;8.346;2022-11-20T05:24:23;22.37;;;11.67;;
19810;SDS011;10065;49.632;8.346;2022-11-20T05:26:51;21.17;;;11.93;;
19810;SDS011;10065;49.632;8.346;2022-11-20T05:29:20;20.17;;;11.00;;
19810;SDS011;10065;49.632;8.346;2022-11-20T05:31:48;21.37;;;11.50;;
19810;SDS011;10065;49.632;8.346;2022-11-20T05:34:16;23.10;;;10.90;;
19810;SDS011;10065;49.632;8.346;2022-11-20T05:36:43;22.40;;;11.50;;
19810;SDS011;10065;49.632;8.346;2022-11-20T05:39:11;20.37;;;10.87;;
19810;SDS011;10065;49.632;8.346;2022-11-20T05:41:41;17.80;;;10.07;;
19810;SDS011;10065;49.632;8.346;2022-11-20T05:44:09;18.97;;;10.33;;
19810;SDS011;10065;49.632;8.346;2022-11-20T05:46:39;19.53;;;11.10;;
19810;SDS011;10065;49.632;8.346;2022-11-20T05:49:06;21.73;;;11.03;;
19810;SDS011;10065;49.632;8.346;2022-11-20T05:51:34;21.23;;;12.30;;
19810;SDS011;10065;49.632;8.346;2022-11-20T05:54:02;23.37;;;13.07;;
19810;SDS011;10065;49.632;8.346;2022-11-20T05:56:29;23.90;;;11.27;;
19810;SDS011;10065;49.632;8.346;2022-11-20T05:58:57;22.97;;;11.93;;
19810;SDS011;10065;49.632;8.346;2022-11-20T06:01:25;24.77;;;12.60;;
19810;SDS011;10065;49.632;8.346;2022-11-20T06:03:54;23.20;;;12.47;;
19810;SDS011;10065;49.632;8.346;2022-11-20T06:06:22;25.23;;;12.77;;
19810;SDS011;10065;49.632;8.346;2022-11-20T06:08:51;21.33;;;11.83;;
19810;SDS011;10065;49.632;8.346;2022-11-20T06:11:19;23.10;;;12.47;;
19810;SDS011;10065;49.632;8.346;2022-11-20T06:13:48;22.77;;;12.47;;
19810;SDS011;10065;49.632;8.346;2022-11-20T06:16:17;22.63;;;12.27;;
19810;SDS011;10065;49.632;8.346;2022-11-20T06:18:46;22.60;;;12.10;;
19810;SDS011;10065;49.632;8.346;2022-11-20T06:21:16;24.03;;;13.07;;
19810;SDS011;10065;49.632;8.346;2022-11-20T06:23:46;23.87;;;12.67;;
19810;SDS011;10065;49.632;8.346;2022-11-20T06:26:15;25.57;;;13.07;;
19810;SDS011;10065;49.632;8.346;2022-11-20T06:28:44;23.63;;;12.77;;
19810;SDS011;10065;49.632;8.346;2022-11-20T06:31:12;23.03;;;12.30;;
19810;SDS011;10065;49.632;8.346;2022-11-20T06:33:41;20.93;;;11.87;;
19810;SDS011;10065;49.632;8.346;2022-11-20T06:36:10;22.83;;;12.67;;
19810;SDS011;10065;49.632;8.346;2022-11-20T06:38:40;22.40;;;11.97;;
19810;SDS011;10065;49.632;8.346;2022-11-20T06:41:10;20.83;;;11.60;;
19810;SDS011;10065;49.632;8.346;2022-11-20T06:43:39;22.63;;;11.73;;
19810;SDS011;10065;49.632;8.346;2022-11-20T06:46:08;21.40;;;11.47;;
19810;SDS011;10065;49.632;8.346;2022-11-20T06:48:36;23.33;;;11.67;;
19810;SDS011;10065;49.632;8.346;2022-11-20T06:51:04;20.93;;;12.07;;
19810;SDS011;10065;49.632;8.346;2022-11-20T06:53:33;21.27;;;11.47;;
19810;SDS011;10065;49.632;8.346;2022-11-20T06:56:03;24.43;;;12.30;;
19810;SDS011;10065;49.632;8.346;2022-11-20T06:58:31;24.70;;;11.93;;
19810;SDS011;10065;49.632;8.346;2022-11-20T07:01:00;21.77;;;12.00;;
19810;SDS011;10065;49.632;8.346;2022-11-20T07:03:30;25.07;;;12.13;;
19810;SDS011;10065;49.632;8.346;2022-11-20T07:05:58;22.77;;;12.30;;
19810;SDS011;10065;49.632;8.346;2022-11-20T07:08:28;21.13;;;11.87;;
19810;SDS011;10065;49.632;8.346;2022-11-20T07:10:57;22.37;;;11.67;;
19810;SDS011;10065;49.632;8.346;2022-11-20T07:13:27;22.00;;;11.73;;
19810;SDS011;10065;49.632;8.346;2022-11-20T07:15:58;22.53;;;12.37;;
19810;SDS011;10065;49.632;8.346;2022-11-20T07:18:26;24.97;;;12.83;;
19810;SDS011;10065;49.632;8.346;2022-11-20T07:20:54;22.77;;;12.73;;
19810;SDS011;10065;49.632;8.346;2022-11-20T07:23:22;24.20;;;13.07;;
19810;SDS011;10065;49.632;8.346;2022-11-20T07:25:50;23.93;;;13.17;;
19810;SDS011;10065;49.632;8.346;2022-11-20T07:28:17;21.73;;;11.87;;
19810;SDS011;10065;49.632;8.346;2022-11-20T07:30:50;25.47;;;13.43;;
19810;SDS011;10065;49.632;8.346;2022-11-20T07:33:18;25.57;;;13.77;;
19810;SDS011;10065;49.632;8.346;2022-11-20T07:35:46;26.27;;;13.97;;
19810;SDS011;10065;49.632;8.346;2022-11-20T07:38:14;24.23;;;12.83;;
19810;SDS011;10065;49.632;8.346;2022-11-20T07:40:42;26.40;;;13.67;;
19810;SDS011;10065;49.632;8.346;2022-11-20T07:43:10;23.83;;;12.07;;
19810;SDS011;10065;49.632;8.346;2022-11-20T07:45:37;24.60;;;12.33;;
19810;SDS011;10065;49.632;8.346;2022-11-20T07:48:07;23.47;;;12.93;;
19810;SDS011;10065;49.632;8.346;2022-11-20T07:50:35;26.50;;;13.50;;
19810;SDS011;10065;49.632;8.346;2022-11-20T07:53:03;23.83;;;12.70;;
19810;SDS011;10065;49.632;8.346;2022-11-20T07:55:31;27.33;;;13.30;;
19810;SDS011;10065;49.632;8.346;2022-11-20T07:58:04;26.30;;;13.63;;
19810;SDS011;10065;49.632;8.346;2022-11-20T08:00:31;24.20;;;12.23;;
19810;SDS011;10065;49.632;8.346;2022-11-20T08:03:02;22.47;;;11.70;;
19810;SDS011;10065;49.632;8.346;2022-11-20T08:05:39;22.33;;;11.83;;
19810;SDS011;10065;49.632;8.346;2022-11-20T08:08:06;22.87;;;11.87;;
19810;SDS011;10065;49.632;8.346;2022-11-20T08:10:34;24.77;;;13.20;;
19810;SDS011;10065;49.632;8.346;2022-11-20T08:13:04;21.77;;;12.50;;
19810;SDS011;10065;49.632;8.346;2022-11-20T08:15:52;24.20;;;12.23;;
19810;SDS011;10065;49.632;8.346;2022-11-20T08:18:20;23.10;;;12.03;;
19810;SDS011;10065;49.632;8.346;2022-11-20T08:21:01;22.03;;;12.07;;
19810;SDS011;10065;49.632;8.346;2022-11-20T08:23:30;21.70;;;12.33;;
19810;SDS011;10065;49.632;8.346;2022-11-20T08:25:58;19.83;;;11.27;;
19810;SDS011;10065;49.632;8.346;2022-11-20T08:28:26;20.07;;;11.37;;
19810;SDS011;10065;49.632;8.346;2022-11-20T08:30:58;19.07;;;11.47;;
19810;SDS011;10065;49.632;8.346;2022-11-20T08:33:27;19.97;;;10.97;;
19810;SDS011;10065;49.632;8.346;2022-11-20T08:35:59;21.23;;;11.93;;
19810;SDS011;10065;49.632;8.346;2022-11-20T08:38:28;21.03;;;10.87;;
19810;SDS011;10065;49.632;8.346;2022-11-20T08:40:56;22.17;;;12.03;;
19810;SDS011;10065;49.632;8.346;2022-11-20T08:43:42;21.83;;;11.77;;
19810;SDS011;10065;49.632;8.346;2022-11-20T08:46:10;20.27;;;11.53;;
19810;SDS011;10065;49.632;8.346;2022-11-20T08:48:37;21.97;;;11.50;;
19810;SDS011;10065;49.632;8.346;2022-11-20T08:51:06;24.53;;;13.07;;
19810;SDS011;10065;49.632;8.346;2022-11-20T08:53:34;23.90;;;13.47;;
19810;SDS011;10065;49.632;8.346;2022-11-20T08:56:02;22.30;;;12.40;;
19810;SDS011;10065;49.632;8.346;2022-11-20T08:58:30;24.13;;;13.03;;
19810;SDS011;10065;49.632;8.346;2022-11-20T09:01:17;24.60;;;12.50;;
19810;SDS011;10065;49.632;8.346;2022-11-20T09:03:46;22.00;;;12.17;;
19810;SDS011;10065;49.632;8.346;2022-11-20T09:06:15;23.67;;;12.53;;
19810;SDS011;10065;49.632;8.346;2022-11-20T09:08:43;23.23;;;12.43;;
19810;SDS011;10065;49.632;8.346;2022-11-20T09:11:11;21.90;;;12.33;;
19810;SDS011;10065;49.632;8.346;2022-11-20T09:13:39;22.33;;;12.03;;
19810;SDS011;10065;49.632;8.346;2022-11-20T09:16:08;22.43;;;12.27;;
19810;SDS011;10065;49.632;8.346;2022-11-20T09:18:36;24.00;;;13.47;;
19810;SDS011;10065;49.632;8.346;2022-11-20T09:21:05;22.37;;;12.00;;
19810;SDS011;10065;49.632;8.346;2022-11-20T09:23:38;22.73;;;11.80;;
19810;SDS011;10065;49.632;8.346;2022-11-20T09:26:07;28.37;;;13.13;;
19810;SDS011;10065;49.632;8.346;2022-11-20T09:28:38;21.90;;;12.00;;
19810;SDS011;10065;49.632;8.346;2022-11-20T09:31:06;22.40;;;11.60;;
19810;SDS011;10065;49.632;8.346;2022-11-20T09:33:35;22.17;;;13.07;;
19810;SDS011;10065;49.632;8.346;2022-11-20T09:36:03;23.63;;;13.03;;
19810;SDS011;10065;49.632;8.346;2022-11-20T09:38:31;20.63;;;12.10;;
19810;SDS011;10065;49.632;8.346;2022-11-20T09:41:02;24.50;;;12.30;;
19810;SDS011;10065;49.632;8.346;2022-11-20T09:43:40;24.33;;;12.67;;
19810;SDS011;10065;49.632;8.346;2022-11-20T09:46:19;23.47;;;13.27;;
19810;SDS011;10065;49.632;8.346;2022-11-20T09:48:58;25.83;;;13.40;;
19810;SDS011;10065;49.632;8.346;2022-11-20T09:51:41;26.03;;;12.63;;
19810;SDS011;10065;49.632;8.346;2022-11-20T09:54:17;25.87;;;13.60;;
19810;SDS011;10065;49.632;8.346;2022-11-20T09:56:49;22.03;;;11.97;;
19810;SDS011;10065;49.632;8.346;2022-11-20T09:59:27;26.30;;;12.93;;
19810;SDS011;10065;49.632;8.346;2022-11-20T10:02:01;25.37;;;13.93;;
19810;SDS011;10065;49.632;8.346;2022-11-20T10:04:43;26.00;;;14.00;;
19810;SDS011;10065;49.632;8.346;2022-11-20T10:07:21;26.57;;;14.23;;
19810;SDS011;10065;49.632;8.346;2022-11-20T10:09:59;24.97;;;14.23;;
19810;SDS011;10065;49.632;8.346;2022-11-20T10:12:31;24.73;;;13.73;;
19810;SDS011;10065;49.632;8.346;2022-11-20T10:15:19;26.27;;;14.03;;
19810;SDS011;10065;49.632;8.346;2022-11-20T10:18:00;21.93;;;12.57;;
19810;SDS011;10065;49.632;8.346;2022-11-20T10:20:42;24.27;;;13.43;;
19810;SDS011;10065;49.632;8.346;2022-11-20T10:23:21;27.47;;;14.03;;
19810;SDS011;10065;49.632;8.346;2022-11-20T10:26:01;26.70;;;13.93;;
19810;SDS011;10065;49.632;8.346;2022-11-20T10:28:37;26.90;;;14.07;;
19810;SDS011;10065;49.632;8.346;2022-11-20T10:31:27;24.23;;;13.50;;
19810;SDS011;10065;49.632;8.346;2022-11-20T10:33:59;28.00;;;15.37;;
19810;SDS011;10065;49.632;8.346;2022-11-20T10:36:38;25.57;;;13.87;;
19810;SDS011;10065;49.632;8.346;2022-11-20T10:39:14;28.20;;;14.03;;
19810;SDS011;10065;49.632;8.346;2022-11-20T10:41:48;31.57;;;15.80;;
19810;SDS011;10065;49.632;8.346;2022-11-20T10:44:21;29.53;;;15.70;;
19810;SDS011;10065;49.632;8.346;2022-11-20T10:47:12;27.73;;;14.93;;
19810;SDS011;10065;49.632;8.346;2022-11-20T10:49:42;28.57;;;15.87;;
19810;SDS011;10065;49.632;8.346;2022-11-20T10:52:18;28.37;;;16.47;;
19810;SDS011;10065;49.632;8.346;2022-11-20T10:55:03;30.63;;;15.50;;
19810;SDS011;10065;49.632;8.346;2022-11-20T10:57:41;27.80;;;15.53;;
19810;SDS011;10065;49.632;8.346;2022-11-20T11:00:19;27.47;;;15.13;;
19810;SDS011;10065;49.632;8.346;2022-11-20T11:02:48;31.37;;;16.70;;
19810;SDS011;10065;49.632;8.346;2022-11-20T11:05:20;32.70;;;17.77;;
19810;SDS011;10065;49.632;8.346;2022-11-20T11:07:55;26.17;;;14.80;;
19810;SDS011;10065;49.632;8.346;2022-11-20T11:10:24;26.97;;;14.97;;
19810;SDS011;10065;49.632;8.346;2022-11-20T11:12:57;31.53;;;16.40;;
19810;SDS011;10065;49.632;8.346;2022-11-20T11:15:27;26.67;;;15.67;;
19810;SDS011;10065;49.632;8.346;2022-11-20T11:17:57;30.57;;;17.17;;
19810;SDS011;10065;49.632;8.346;2022-11-20T11:20:25;29.67;;;16.67;;
19810;SDS011;10065;49.632;8.346;2022-11-20T11:22:54;34.00;;;17.00;;
19810;SDS011;10065;49.632;8.346;2022-11-20T11:25:25;26.13;;;15.53;;
19810;SDS011;10065;49.632;8.346;2022-11-20T11:27:58;28.50;;;15.83;;
19810;SDS011;10065;49.632;8.346;2022-11-20T11:30:28;30.13;;;16.60;;
19810;SDS011;10065;49.632;8.346;2022-11-20T11:33:04;27.13;;;16.40;;
19810;SDS011;10065;49.632;8.346;2022-11-20T11:35:38;26.03;;;15.37;;
19810;SDS011;10065;49.632;8.346;2022-11-20T11:38:28;26.53;;;15.77;;
19810;SDS011;10065;49.632;8.346;2022-11-20T11:40:58;27.93;;;16.47;;
19810;SDS011;10065;49.632;8.346;2022-11-20T11:43:26;31.87;;;18.07;;
19810;SDS011;10065;49.632;8.346;2022-11-20T11:49:15;28.70;;;16.83;;
19810;SDS011;10065;49.632;8.346;2022-11-20T11:51:49;28.43;;;16.67;;
19810;SDS011;10065;49.632;8.346;2022-11-20T11:54:30;28.57;;;17.03;;
19810;SDS011;10065;49.632;8.346;2022-11-20T11:57:03;28.60;;;16.53;;
19810;SDS011;10065;49.632;8.346;2022-11-20T11:59:43;25.73;;;16.83;;
19810;SDS011;10065;49.632;8.346;2022-11-20T12:02:25;26.77;;;15.50;;
19810;SDS011;10065;49.632;8.346;2022-11-20T12:05:00;25.20;;;15.03;;
19810;SDS011;10065;49.632;8.346;2022-11-20T12:07:38;25.67;;;14.73;;
19810;SDS011;10065;49.632;8.346;2022-11-20T12:10:14;28.13;;;16.40;;
19810;SDS011;10065;49.632;8.346;2022-11-20T12:12:51;26.60;;;15.40;;
19810;SDS011;10065;49.632;8.346;2022-11-20T12:15:29;27.80;;;15.63;;
19810;SDS011;10065;49.632;8.346;2022-11-20T12:17:59;27.03;;;15.30;;
19810;SDS011;10065;49.632;8.346;2022-11-20T12:20:29;27.50;;;16.03;;
19810;SDS011;10065;49.632;8.346;2022-11-20T12:23:06;28.27;;;16.13;;
19810;SDS011;10065;49.632;8.346;2022-11-20T12:25:43;28.57;;;15.63;;
19810;SDS011;10065;49.632;8.346;2022-11-20T12:28:25;33.53;;;18.17;;
19810;SDS011;10065;49.632;8.346;2022-11-20T12:31:09;28.43;;;15.10;;
19810;SDS011;10065;49.632;8.346;2022-11-20T12:33:55;29.23;;;14.87;;
19810;SDS011;10065;49.632;8.346;2022-11-20T12:36:38;26.97;;;15.83;;
19810;SDS011;10065;49.632;8.346;2022-11-20T12:39:16;30.93;;;14.87;;
19810;SDS011;10065;49.632;8.346;2022-11-20T12:41:58;26.83;;;14.47;;
19810;SDS011;10065;49.632;8.346;2022-11-20T12:45:10;26.00;;;14.53;;
19810;SDS011;10065;49.632;8.346;2022-11-20T12:47:55;24.90;;;14.40;;
19810;SDS011;10065;49.632;8.346;2022-11-20T12:50:39;26.47;;;14.97;;
19810;SDS011;10065;49.632;8.346;2022-11-20T12:53:37;24.80;;;13.97;;
19810;SDS011;10065;49.632;8.346;2022-11-20T12:56:14;26.80;;;14.73;;
19810;SDS011;10065;49.632;8.346;2022-11-20T12:58:52;26.33;;;13.77;;
19810;SDS011;10065;49.632;8.346;2022-11-20T13:01:32;26.23;;;13.77;;
19810;SDS011;10065;49.632;8.346;2022-11-20T13:04:18;24.30;;;15.23;;
19810;SDS011;10065;49.632;8.346;2022-11-20T13:06:59;26.63;;;14.63;;
19810;SDS011;10065;49.632;8.346;2022-11-20T13:09:28;25.17;;;14.37;;
19810;SDS011;10065;49.632;8.346;2022-11-20T13:12:00;26.40;;;15.07;;
19810;SDS011;10065;49.632;8.346;2022-11-20T13:14:33;25.83;;;13.47;;
19810;SDS011;10065;49.632;8.346;2022-11-20T13:17:05;24.53;;;13.27;;
19810;SDS011;10065;49.632;8.346;2022-11-20T13:19:38;22.20;;;12.50;;
19810;SDS011;10065;49.632;8.346;2022-11-20T13:22:08;24.60;;;13.43;;
19810;SDS011;10065;49.632;8.346;2022-11-20T13:24:36;25.10;;;14.13;;
19810;SDS011;10065;49.632;8.346;2022-11-20T13:27:20;21.40;;;12.63;;
19810;SDS011;10065;49.632;8.346;2022-11-20T13:29:59;21.97;;;13.00;;
19810;SDS011;10065;49.632;8.346;2022-11-20T13:32:29;24.90;;;13.80;;
19810;SDS011;10065;49.632;8.346;2022-11-20T13:34:59;22.00;;;12.97;;
19810;SDS011;10065;49.632;8.346;2022-11-20T13:37:30;20.90;;;12.47;;
19810;SDS011;10065;49.632;8.346;2022-11-20T13:43:01;21.80;;;12.67;;
19810;SDS011;10065;49.632;8.346;2022-11-20T13:45:34;26.90;;;12.67;;
19810;SDS011;10065;49.632;8.346;2022-11-20T13:48:02;20.07;;;11.50;;
19810;SDS011;10065;49.632;8.346;2022-11-20T13:50:39;22.17;;;12.30;;
19810;SDS011;10065;49.632;8.346;2022-11-20T13:53:20;21.47;;;11.50;;
19810;SDS011;10065;49.632;8.346;2022-11-20T13:56:00;21.43;;;11.83;;
19810;SDS011;10065;49.632;8.346;2022-11-20T13:58:44;21.63;;;12.20;;
19810;SDS011;10065;49.632;8.346;2022-11-20T14:01:23;20.43;;;12.03;;
19810;SDS011;10065;49.632;8.346;2022-11-20T14:03:52;24.03;;;13.40;;
19810;SDS011;10065;49.632;8.346;2022-11-20T14:06:39;26.17;;;14.07;;
19810;SDS011;10065;49.632;8.346;2022-11-20T14:09:24;24.87;;;14.87;;
19810;SDS011;10065;49.632;8.346;2022-11-20T14:11:53;25.57;;;15.37;;
19810;SDS011;10065;49.632;8.346;2022-11-20T14:14:21;25.77;;;15.47;;
19810;SDS011;10065;49.632;8.346;2022-11-20T14:16:51;23.30;;;12.53;;
19810;SDS011;10065;49.632;8.346;2022-11-20T14:19:25;21.27;;;11.60;;
19810;SDS011;10065;49.632;8.346;2022-11-20T14:22:07;19.87;;;10.80;;
19810;SDS011;10065;49.632;8.346;2022-11-20T14:24:39;18.30;;;8.53;;
19810;SDS011;10065;49.632;8.346;2022-11-20T14:27:11;13.73;;;6.87;;
19810;SDS011;10065;49.632;8.346;2022-11-20T14:29:40;14.70;;;6.90;;
19810;SDS011;10065;49.632;8.346;2022-11-20T14:32:10;14.00;;;6.47;;
19810;SDS011;10065;49.632;8.346;2022-11-20T14:34:39;14.40;;;6.43;;
19810;SDS011;10065;49.632;8.346;2022-11-20T14:37:10;11.23;;;6.07;;
19810;SDS011;10065;49.632;8.346;2022-11-20T14:39:50;14.30;;;6.87;;
19810;SDS011;10065;49.632;8.346;2022-11-20T14:42:20;10.57;;;5.37;;
19810;SDS011;10065;49.632;8.346;2022-11-20T14:44:50;9.67;;;4.17;;
19810;SDS011;10065;49.632;8.346;2022-11-20T14:47:20;7.50;;;2.87;;
19810;SDS011;10065;49.632;8.346;2022-11-20T14:49:51;10.83;;;2.97;;
19810;SDS011;10065;49.632;8.346;2022-11-20T14:52:20;9.27;;;3.33;;